»·PEaware :: N531HY KGCN-KHII

N531HY :: KGCN-KHII

FLIGHT INFORMATION

Flight Status: Arrived
Operator: Privately registered:
United States
More flights under this callsign
Pilot: Mitch M. (17881)
Aircraft: PIPER PA-46-500TP MALIBU MERIDIAN
(P46T)
More flights by this aircraft type
Origin: KGCN Grand Canyon Natl Park
United States
Destination: KHII Lake Havasu City
United States
More flights between these airports :: More routes between these airports
Route: +
File this flight plan on PilotEdge
Remarks:
Altitude:
(Current/Filed)
14,500ft
Speed:
(Current/Filed)
200kts
Departed: 25-Jan-18 05:18 PM
Arrived: 25-Jan-18 06:02 PM
Distance/Time
Traveled:
137nm/0:44
Distance/Time
To Go:
Arrived

Flight Plot

Page will automatically refresh every two minutes.


Map Options




Map Legend


Flown Route
Filed Route
Departure Airport
Arrival Airport
Navaid (VOR, NDB)
Fix

Horizontal Profiles

Position Reports

Time Latitude Longitude Heading Altitude Ground
Speed
25-Jan-18 17:10 35.957093 -112.138485 130 6571ft 0kts
25-Jan-18 17:11 35.957093 -112.138485 130 6571ft 0kts
25-Jan-18 17:12 35.957093 -112.138485 130 6571ft 0kts
25-Jan-18 17:13 35.957093 -112.138485 130 6571ft 0kts
25-Jan-18 17:14 35.957093 -112.138485 130 6571ft 0kts
25-Jan-18 17:15 35.957093 -112.138485 130 6571ft 0kts
25-Jan-18 17:16 35.957093 -112.138485 130 6571ft 0kts
25-Jan-18 17:17 35.957093 -112.138485 130 6571ft 0kts
25-Jan-18 17:18 35.957093 -112.138485 130 6571ft 0kts
25-Jan-18 17:19 35.957093 -112.138485 130 6571ft 0kts
25-Jan-18 17:20 35.957073 -112.138456 130 6571ft 0kts
25-Jan-18 17:21 35.957207 -112.138404 325 6571ft 5kts
25-Jan-18 17:22 35.959121 -112.137545 55 6571ft 12kts
25-Jan-18 17:23 35.961341 -112.136626 268 6571ft 14kts
25-Jan-18 17:24 35.954937 -112.144289 220 6572ft 100kts
25-Jan-18 17:25 35.936419 -112.177683 253 7576ft 141kts
25-Jan-18 17:26 35.910194 -112.219576 230 8812ft 168kts
25-Jan-18 17:27 35.883224 -112.267189 239 10355ft 165kts
25-Jan-18 17:28 35.857569 -112.314826 221 11800ft 169kts
25-Jan-18 17:29 35.825571 -112.357437 230 13400ft 169kts
25-Jan-18 17:30 35.797019 -112.402716 232 14472ft 195kts
25-Jan-18 17:31 35.761063 -112.461507 232 14513ft 227kts
25-Jan-18 17:32 35.723647 -112.522760 232 14508ft 217kts
25-Jan-18 17:33 35.687191 -112.582312 232 14509ft 218kts
25-Jan-18 17:34 35.650675 -112.641863 232 14509ft 218kts
25-Jan-18 17:35 35.614096 -112.701415 232 14509ft 218kts
25-Jan-18 17:36 35.577389 -112.761073 232 14509ft 218kts
25-Jan-18 17:37 35.540757 -112.820506 232 14509ft 218kts
25-Jan-18 17:38 35.504084 -112.879904 232 14509ft 218kts
25-Jan-18 17:39 35.467250 -112.939462 232 14509ft 218kts
25-Jan-18 17:40 35.430503 -112.998776 232 14509ft 218kts
25-Jan-18 17:41 35.393740 -113.058018 232 14509ft 218kts
25-Jan-18 17:42 35.356812 -113.117422 232 14509ft 218kts
25-Jan-18 17:43 35.319978 -113.176575 232 14509ft 218kts
25-Jan-18 17:44 35.283117 -113.235672 232 14509ft 218kts
25-Jan-18 17:45 35.246078 -113.294953 232 14509ft 218kts
25-Jan-18 17:46 35.209003 -113.354192 232 14509ft 218kts
25-Jan-18 17:47 35.179935 -113.400568 232 14509ft 218kts
25-Jan-18 17:48 35.142693 -113.459895 232 14509ft 218kts
25-Jan-18 17:49 35.105786 -113.518590 232 14509ft 218kts
25-Jan-18 17:50 35.068594 -113.577637 232 14509ft 219kts
25-Jan-18 17:51 35.031496 -113.636439 232 14509ft 219kts
25-Jan-18 17:52 34.994386 -113.695159 232 14509ft 218kts
25-Jan-18 17:53 34.957237 -113.753844 232 14509ft 219kts
25-Jan-18 17:54 34.919824 -113.812849 232 14509ft 219kts
25-Jan-18 17:55 34.882588 -113.871476 232 14509ft 219kts
25-Jan-18 17:56 34.845344 -113.930020 232 14509ft 219kts
25-Jan-18 17:57 34.807942 -113.988714 232 14509ft 219kts
25-Jan-18 17:58 34.770640 -114.047154 232 14509ft 219kts
25-Jan-18 17:59 34.733204 -114.105709 232 14509ft 219kts
25-Jan-18 18:00 34.701514 -114.156254 234 12902ft 238kts
25-Jan-18 18:01 34.663063 -114.226649 234 9448ft 208kts
25-Jan-18 18:02 34.634075 -114.283292 245 6870ft 191kts
25-Jan-18 18:03 34.612239 -114.339084 247 4889ft 168kts
25-Jan-18 18:04 34.585756 -114.387308 193 3052ft 198kts
25-Jan-18 18:05 34.551298 -114.373659 142 1900ft 148kts
25-Jan-18 18:06 34.532462 -114.338744 53 2212ft 137kts
25-Jan-18 18:07 34.566439 -114.354954 329 787ft 83kts
25-Jan-18 18:08 34.569781 -114.357964 177 786ft 13kts
25-Jan-18 18:09 34.569456 -114.359376 330 786ft 14kts
25-Jan-18 18:10 34.568400 -114.361204 197 786ft 0kts

Navigation Log

Ident Type
Flight plan parsing failed, navigation log unavailable